Time;durP1;ratioP1;P1;durP2;ratioP2;P2;SDS_P1;SDS_P2;PMS_P1;PMS_P2;Temp;Humidity;BMP_temperature;BMP_pressure;BME280_temperature;BME280_humidity;BME280_pressure;Samples;Min_cycle;Max_cycle;Signal;HPM_P1;HPM_P2
2023/06/03 00:02:00;;;;;;;7.93;6.30;;;14.80;59.20;;;;;;5028006;28;20385;-58
2023/06/03 00:04:29;;;;;;;9.13;5.70;;;14.80;59.40;;;;;;5024188;28;20537;-57
2023/06/03 00:06:58;;;;;;;15.97;6.40;;;14.80;59.40;;;;;;5027516;28;20196;-56
2023/06/03 00:09:24;;;;;;;10.50;6.03;;;14.80;59.60;;;;;;5029265;28;20430;-56
2023/06/03 00:11:49;;;;;;;17.23;6.50;;;14.70;59.40;;;;;;5027808;28;20449;-56
2023/06/03 00:14:15;;;;;;;8.73;6.10;;;14.70;59.30;;;;;;5028612;28;20179;-56
2023/06/03 00:16:46;;;;;;;13.93;7.03;;;14.70;59.30;;;;;;5029414;28;20188;-57
2023/06/03 00:19:14;;;;;;;10.67;5.93;;;14.70;59.30;;;;;;5026810;28;20341;-57
2023/06/03 00:21:45;;;;;;;7.33;5.73;;;14.70;59.30;;;;;;5021775;28;20447;-57
2023/06/03 00:24:15;;;;;;;9.70;6.27;;;14.70;59.30;;;;;;5024719;28;20806;-57
2023/06/03 00:26:41;;;;;;;12.40;6.13;;;14.70;59.50;;;;;;5030262;28;20798;-57
2023/06/03 00:29:07;;;;;;;9.73;6.53;;;14.60;59.70;;;;;;5024689;28;20544;-57
2023/06/03 00:31:33;;;;;;;9.20;5.73;;;14.60;60.00;;;;;;5024366;28;20200;-58
2023/06/03 00:33:58;;;;;;;13.20;6.80;;;14.60;60.00;;;;;;5022174;28;20442;-57
2023/06/03 00:36:24;;;;;;;13.90;6.37;;;14.50;60.10;;;;;;5028111;28;20222;-57
2023/06/03 00:38:50;;;;;;;9.27;6.27;;;14.50;60.00;;;;;;5024423;28;20203;-58
2023/06/03 00:41:16;;;;;;;10.20;5.90;;;14.40;59.90;;;;;;5024006;28;20192;-56
2023/06/03 00:43:42;;;;;;;10.60;6.30;;;14.40;60.10;;;;;;5026066;28;20867;-57
2023/06/03 00:46:10;;;;;;;13.03;6.47;;;14.40;60.20;;;;;;5024177;28;20174;-58
2023/06/03 00:48:37;;;;;;;8.73;5.70;;;14.30;60.10;;;;;;5026292;28;20640;-58
2023/06/03 00:51:03;;;;;;;9.97;7.23;;;14.30;60.20;;;;;;5024275;28;20473;-57
2023/06/03 00:53:29;;;;;;;13.23;6.83;;;14.30;60.50;;;;;;5025850;28;20935;-57
2023/06/03 00:55:55;;;;;;;9.63;6.30;;;14.20;60.50;;;;;;5026895;28;20557;-56
2023/06/03 00:58:20;;;;;;;11.77;6.70;;;14.20;60.60;;;;;;5026913;28;20195;-57
2023/06/03 01:00:47;;;;;;;12.03;6.70;;;14.10;60.80;;;;;;5027039;28;20438;-57
2023/06/03 01:03:14;;;;;;;11.80;5.80;;;14.10;61.10;;;;;;5022265;28;20263;-56
2023/06/03 01:05:45;;;;;;;7.30;5.93;;;14.10;61.20;;;;;;5022750;28;20428;-56
2023/06/03 01:08:22;;;;;;;9.20;6.07;;;14.00;61.40;;;;;;5023981;28;20430;-57
2023/06/03 01:11:07;;;;;;;8.90;6.13;;;14.00;61.70;;;;;;5027561;28;20512;-57
2023/06/03 01:13:42;;;;;;;8.97;6.07;;;14.00;61.80;;;;;;5029161;28;20794;-54
2023/06/03 01:16:09;;;;;;;9.73;6.60;;;13.90;62.00;;;;;;5028719;28;20990;-56
2023/06/03 01:18:36;;;;;;;9.00;6.30;;;13.90;62.30;;;;;;5025797;28;20470;-57
2023/06/03 01:21:03;;;;;;;9.57;6.20;;;13.90;62.50;;;;;;5026237;28;20442;-57
2023/06/03 01:23:33;;;;;;;11.27;6.07;;;13.90;62.80;;;;;;5027076;28;20493;-57
2023/06/03 01:26:01;;;;;;;12.17;7.00;;;13.80;63.00;;;;;;5027847;28;20411;-56
2023/06/03 01:28:28;;;;;;;10.03;6.53;;;13.80;63.30;;;;;;5029190;28;20422;-58
2023/06/03 01:30:58;;;;;;;14.57;7.03;;;13.80;63.40;;;;;;5026821;28;20457;-55
2023/06/03 01:33:25;;;;;;;10.20;6.10;;;13.80;63.50;;;;;;5024833;28;20422;-56
2023/06/03 01:35:54;;;;;;;11.57;6.60;;;13.80;63.70;;;;;;5027828;28;20418;-57
2023/06/03 01:38:21;;;;;;;15.93;7.03;;;13.80;63.90;;;;;;5024008;28;21132;-58
2023/06/03 01:40:47;;;;;;;10.37;6.90;;;13.80;64.00;;;;;;5022875;28;20517;-56
2023/06/03 01:43:12;;;;;;;13.20;7.00;;;13.70;64.20;;;;;;5026452;28;20891;-56
2023/06/03 01:45:38;;;;;;;8.97;6.70;;;13.70;64.60;;;;;;5027454;28;20179;-57
2023/06/03 01:48:04;;;;;;;7.93;6.00;;;13.60;65.00;;;;;;5025335;28;20176;-56
2023/06/03 01:50:29;;;;;;;8.57;6.47;;;13.60;65.20;;;;;;5025728;28;20199;-57
2023/06/03 01:52:55;;;;;;;16.63;7.47;;;13.60;65.60;;;;;;5026030;28;20457;-58
2023/06/03 01:55:21;;;;;;;11.70;6.67;;;13.50;65.90;;;;;;5026035;28;20242;-57
2023/06/03 01:57:47;;;;;;;11.60;7.30;;;13.50;66.20;;;;;;5019110;28;20179;-56
2023/06/03 02:00:13;;;;;;;10.97;6.67;;;13.50;66.60;;;;;;5020913;28;20196;-56
2023/06/03 02:02:39;;;;;;;11.53;7.20;;;13.50;67.10;;;;;;5024451;28;20188;-57
2023/06/03 02:05:05;;;;;;;15.17;7.93;;;13.50;67.70;;;;;;5020439;28;20927;-56
2023/06/03 02:07:30;;;;;;;13.63;6.83;;;13.40;67.90;;;;;;5023879;28;20640;-56
2023/06/03 02:09:57;;;;;;;12.00;6.60;;;13.40;68.30;;;;;;5026557;28;20172;-58
2023/06/03 02:12:23;;;;;;;10.13;7.53;;;13.40;68.50;;;;;;5027163;28;20672;-58
2023/06/03 02:14:58;;;;;;;16.87;7.87;;;13.40;68.50;;;;;;5026158;28;20484;-58
2023/06/03 02:17:26;;;;;;;10.57;6.43;;;13.40;68.60;;;;;;5024433;28;20827;-56
2023/06/03 02:19:55;;;;;;;13.20;7.63;;;13.30;69.00;;;;;;5026630;28;20537;-54
2023/06/03 02:22:22;;;;;;;14.90;7.40;;;13.30;69.00;;;;;;5028041;28;20422;-55
2023/06/03 02:24:48;;;;;;;14.00;7.60;;;13.30;69.20;;;;;;5019487;28;20483;-57
2023/06/03 02:27:24;;;;;;;12.20;7.33;;;13.30;69.30;;;;;;5019705;28;20419;-56
2023/06/03 02:29:51;;;;;;;17.90;7.23;;;13.20;69.70;;;;;;5021091;28;20538;-56
2023/06/03 02:32:19;;;;;;;14.10;7.30;;;13.20;70.50;;;;;;5024270;28;20568;-54
2023/06/03 02:34:44;;;;;;;12.20;6.80;;;13.20;71.20;;;;;;5022412;28;20991;-56
2023/06/03 02:37:15;;;;;;;13.03;8.13;;;13.10;71.60;;;;;;5022664;28;20435;-57
2023/06/03 02:39:41;;;;;;;14.07;7.57;;;13.20;71.60;;;;;;5021861;28;20257;-56
2023/06/03 02:42:07;;;;;;;14.80;7.13;;;13.20;71.70;;;;;;5026479;28;20540;-57
2023/06/03 02:44:33;;;;;;;11.10;7.37;;;13.20;71.70;;;;;;5027925;28;20183;-57
2023/06/03 02:46:58;;;;;;;15.00;7.23;;;13.10;71.80;;;;;;5022747;28;20422;-57
2023/06/03 02:49:24;;;;;;;14.10;7.80;;;13.10;71.80;;;;;;5024021;28;20625;-57
2023/06/03 02:51:50;;;;;;;10.60;7.80;;;13.10;72.40;;;;;;5025510;28;20199;-58
2023/06/03 02:54:15;;;;;;;12.80;7.80;;;13.10;72.80;;;;;;5021600;28;20202;-56
2023/06/03 02:56:41;;;;;;;15.27;7.90;;;13.10;73.20;;;;;;5023756;28;20239;-57
2023/06/03 02:59:07;;;;;;;14.97;7.63;;;13.00;73.60;;;;;;5022147;28;20246;-58
2023/06/03 03:01:32;;;;;;;11.07;7.03;;;13.00;73.70;;;;;;5025060;28;20989;-54
2023/06/03 03:03:59;;;;;;;16.83;8.13;;;13.00;74.80;;;;;;5021239;28;20235;-54
2023/06/03 03:06:25;;;;;;;13.83;8.10;;;13.00;74.90;;;;;;5019032;28;20215;-57
2023/06/03 03:08:54;;;;;;;20.83;8.50;;;13.00;74.70;;;;;;5019813;28;20454;-58
2023/06/03 03:11:19;;;;;;;12.17;7.37;;;12.90;75.20;;;;;;5027484;28;20192;-58
2023/06/03 03:13:46;;;;;;;18.33;7.67;;;12.90;75.20;;;;;;5021201;28;20489;-57
2023/06/03 03:16:12;;;;;;;14.87;7.83;;;12.90;75.40;;;;;;5020174;28;20592;-58
2023/06/03 03:18:39;;;;;;;11.20;7.60;;;12.90;75.60;;;;;;5023709;28;20469;-57
2023/06/03 03:21:05;;;;;;;16.60;7.63;;;12.90;75.90;;;;;;5025801;28;20442;-57
2023/06/03 03:23:31;;;;;;;9.90;6.90;;;12.80;76.40;;;;;;5027208;28;21002;-56
2023/06/03 03:25:58;;;;;;;12.07;7.80;;;12.80;76.70;;;;;;5025107;28;20431;-57
2023/06/03 03:28:24;;;;;;;13.57;7.90;;;12.80;77.50;;;;;;5027105;28;20423;-58
2023/06/03 03:30:50;;;;;;;17.93;7.80;;;12.80;77.90;;;;;;5021282;28;20474;-57
2023/06/03 03:33:19;;;;;;;10.90;7.50;;;12.70;78.50;;;;;;5024057;28;20902;-57
2023/06/03 03:35:44;;;;;;;15.27;8.10;;;12.70;79.50;;;;;;5023479;28;20234;-59
2023/06/03 03:38:10;;;;;;;11.83;7.80;;;12.70;79.70;;;;;;5029510;28;20461;-57
2023/06/03 03:40:37;;;;;;;12.87;7.50;;;12.70;80.30;;;;;;5030389;28;20203;-57
2023/06/03 03:43:03;;;;;;;13.37;7.80;;;12.60;81.00;;;;;;5025699;28;20262;-58
2023/06/03 03:45:34;;;;;;;14.20;7.90;;;12.70;81.90;;;;;;5029306;28;21048;-57
2023/06/03 03:48:23;;;;;;;10.13;7.20;;;12.60;82.20;;;;;;5021806;28;20465;-58
2023/06/03 03:50:50;;;;;;;12.90;7.70;;;12.60;82.30;;;;;;5028448;28;20452;-58
2023/06/03 03:53:26;;;;;;;17.43;8.00;;;12.60;82.70;;;;;;5029358;28;20453;-56
2023/06/03 03:55:53;;;;;;;14.57;7.83;;;12.60;82.50;;;;;;5027120;28;20484;-57
2023/06/03 03:58:29;;;;;;;14.73;8.03;;;12.60;83.00;;;;;;5025179;28;20471;-58
2023/06/03 04:01:17;;;;;;;15.03;8.03;;;12.60;83.10;;;;;;5027681;28;20543;-59
2023/06/03 04:03:45;;;;;;;11.10;8.13;;;12.50;82.90;;;;;;5028146;28;20415;-58
2023/06/03 04:06:13;;;;;;;13.97;7.03;;;12.40;83.80;;;;;;5027182;28;20476;-57
2023/06/03 04:08:45;;;;;;;15.17;8.30;;;12.40;84.80;;;;;;5028561;28;20887;-57
2023/06/03 04:11:30;;;;;;;11.10;7.63;;;12.40;86.10;;;;;;5024742;28;20446;-57
2023/06/03 04:13:58;;;;;;;16.67;8.23;;;12.30;86.50;;;;;;5027221;28;20789;-56
2023/06/03 04:16:57;;;;;;;13.10;7.43;;;12.30;86.60;;;;;;5024262;28;20553;-57
2023/06/03 04:19:36;;;;;;;12.40;7.87;;;12.30;87.40;;;;;;5028451;28;20549;-57
2023/06/03 04:22:05;;;;;;;14.50;7.97;;;12.30;86.90;;;;;;5027180;28;20446;-56
2023/06/03 04:24:32;;;;;;;10.30;7.30;;;12.40;86.30;;;;;;5023797;28;20427;-56
2023/06/03 04:26:59;;;;;;;13.50;8.23;;;12.40;86.50;;;;;;5021592;28;20422;-57
2023/06/03 04:29:24;;;;;;;13.90;8.80;;;12.40;87.30;;;;;;5021559;28;20541;-58
2023/06/03 04:31:50;;;;;;;20.43;8.73;;;12.40;87.80;;;;;;5024709;28;21104;-57
2023/06/03 04:34:16;;;;;;;14.03;7.70;;;12.50;87.20;;;;;;5025625;28;20180;-57
2023/06/03 04:36:41;;;;;;;23.93;8.47;;;12.50;85.30;;;;;;5029583;28;20237;-58
2023/06/03 04:39:08;;;;;;;10.80;7.87;;;12.60;85.00;;;;;;5029077;28;20238;-58
2023/06/03 04:41:37;;;;;;;12.07;8.13;;;12.60;85.90;;;;;;5021730;28;20593;-58
2023/06/03 04:44:03;;;;;;;18.00;8.20;;;12.60;85.70;;;;;;5023163;28;20416;-56
2023/06/03 04:46:31;;;;;;;14.57;9.00;;;12.70;84.60;;;;;;5026470;28;20430;-57
2023/06/03 04:48:59;;;;;;;10.13;8.63;;;12.70;85.00;;;;;;5024335;28;20524;-58
2023/06/03 04:51:27;;;;;;;24.57;9.00;;;12.80;84.90;;;;;;5026925;28;20461;-56
2023/06/03 04:53:55;;;;;;;19.70;9.10;;;12.80;84.10;;;;;;5028906;28;20927;-57
2023/06/03 04:56:21;;;;;;;17.40;7.90;;;12.80;84.50;;;;;;5030294;28;20426;-56
2023/06/03 04:58:47;;;;;;;18.00;8.93;;;12.90;86.20;;;;;;5023851;28;20459;-56
2023/06/03 05:01:13;;;;;;;11.90;8.23;;;12.90;87.00;;;;;;5027401;28;20441;-56
2023/06/03 05:03:38;;;;;;;22.83;8.63;;;13.00;88.20;;;;;;5028576;28;20489;-56
2023/06/03 05:06:10;;;;;;;12.77;7.90;;;13.00;84.90;;;;;;5024331;28;20175;-57
2023/06/03 05:08:37;;;;;;;19.10;8.80;;;13.10;85.10;;;;;;5020815;28;20249;-55
2023/06/03 05:11:03;;;;;;;20.70;9.03;;;13.10;82.80;;;;;;5020700;28;20486;-56
2023/06/03 05:13:29;;;;;;;20.23;8.93;;;13.20;80.00;;;;;;5027236;28;20516;-55
2023/06/03 05:15:54;;;;;;;10.90;7.80;;;13.20;79.20;;;;;;5025606;28;20180;-57
2023/06/03 05:18:20;;;;;;;16.37;8.23;;;13.30;79.00;;;;;;5029727;28;20292;-56
2023/06/03 05:20:45;;;;;;;13.70;7.07;;;13.40;79.30;;;;;;5025807;28;20195;-54
2023/06/03 05:23:11;;;;;;;15.27;8.23;;;13.50;78.00;;;;;;5025881;28;20195;-56
2023/06/03 05:25:37;;;;;;;16.53;8.90;;;13.60;76.60;;;;;;5025742;28;20180;-57
2023/06/03 05:28:02;;;;;;;18.20;8.37;;;13.70;75.10;;;;;;5026045;28;20219;-56
2023/06/03 05:30:28;;;;;;;18.97;8.67;;;13.80;74.40;;;;;;5027738;28;20203;-55
2023/06/03 05:32:53;;;;;;;12.87;8.43;;;13.80;73.60;;;;;;5023161;28;20179;-56
2023/06/03 05:35:19;;;;;;;14.80;7.80;;;13.90;73.80;;;;;;5021250;28;20211;-56
2023/06/03 05:37:45;;;;;;;12.53;8.00;;;14.00;73.10;;;;;;5025622;28;20275;-56
2023/06/03 05:40:11;;;;;;;15.77;8.33;;;14.10;72.10;;;;;;5021381;28;20176;-56
2023/06/03 05:42:36;;;;;;;22.67;8.23;;;14.20;71.30;;;;;;5022697;28;20646;-56
2023/06/03 05:45:03;;;;;;;14.87;8.20;;;14.30;70.90;;;;;;5029415;28;20414;-53
2023/06/03 05:47:28;;;;;;;14.13;7.60;;;14.40;70.60;;;;;;5026859;28;20168;-56
2023/06/03 05:49:54;;;;;;;16.77;7.67;;;14.50;69.90;;;;;;5019527;28;20500;-54
2023/06/03 05:52:20;;;;;;;13.20;7.33;;;14.50;69.50;;;;;;5023538;28;20184;-57
2023/06/03 05:54:45;;;;;;;13.17;8.17;;;14.60;68.70;;;;;;5022492;28;20539;-55
2023/06/03 05:57:11;;;;;;;15.90;8.00;;;14.70;68.60;;;;;;5023401;28;20184;-57
2023/06/03 05:59:36;;;;;;;15.60;8.57;;;14.70;68.50;;;;;;5025218;28;20215;-57
2023/06/03 06:02:02;;;;;;;13.20;7.60;;;14.80;67.50;;;;;;5023883;28;20199;-57
2023/06/03 06:04:28;;;;;;;10.03;7.17;;;14.90;67.50;;;;;;5023134;28;20187;-56
2023/06/03 06:06:53;;;;;;;14.23;7.57;;;15.00;66.50;;;;;;5021955;28;20652;-56
2023/06/03 06:09:19;;;;;;;18.20;8.67;;;15.10;66.00;;;;;;5025847;28;20266;-56
2023/06/03 06:11:45;;;;;;;11.37;7.50;;;15.20;65.60;;;;;;5023826;28;20204;-57
2023/06/03 06:14:12;;;;;;;15.30;8.37;;;15.20;65.10;;;;;;5021466;28;20176;-57
2023/06/03 06:16:37;;;;;;;11.80;7.70;;;15.30;64.50;;;;;;5024632;28;20196;-59
2023/06/03 06:19:03;;;;;;;16.93;7.23;;;15.40;64.40;;;;;;5024792;28;20974;-56
2023/06/03 06:21:29;;;;;;;17.60;7.53;;;15.40;64.50;;;;;;5023572;28;20195;-55
2023/06/03 06:23:55;;;;;;;14.60;7.03;;;15.50;64.10;;;;;;5024770;28;20218;-57
2023/06/03 06:26:21;;;;;;;15.43;7.43;;;15.60;63.80;;;;;;5023022;28;20263;-56
2023/06/03 06:28:47;;;;;;;12.17;7.03;;;15.70;64.00;;;;;;5022569;28;20522;-56
2023/06/03 06:31:15;;;;;;;13.90;8.03;;;15.80;63.60;;;;;;5024610;28;20477;-56
2023/06/03 06:33:47;;;;;;;18.17;7.93;;;15.80;63.10;;;;;;5024510;28;20176;-56
2023/06/03 06:36:27;;;;;;;11.00;7.67;;;15.90;62.90;;;;;;5024902;28;20865;-56
2023/06/03 06:38:53;;;;;;;12.73;7.80;;;16.00;63.00;;;;;;5017318;28;20477;-56
2023/06/03 06:41:19;;;;;;;13.10;7.20;;;16.10;62.60;;;;;;5025245;28;20466;-57
2023/06/03 06:43:45;;;;;;;11.70;6.80;;;16.20;62.40;;;;;;5026849;28;20536;-55
2023/06/03 06:46:10;;;;;;;12.97;7.80;;;16.20;62.10;;;;;;5023607;28;20607;-57
2023/06/03 06:48:38;;;;;;;12.23;7.80;;;16.30;62.20;;;;;;5016239;28;20242;-57
2023/06/03 06:51:04;;;;;;;17.77;7.50;;;16.40;62.60;;;;;;5023118;28;20337;-56
2023/06/03 06:53:32;;;;;;;17.27;7.97;;;16.50;62.60;;;;;;5025855;28;20426;-57
2023/06/03 06:56:02;;;;;;;14.63;7.63;;;16.60;61.90;;;;;;5019036;28;20962;-56
2023/06/03 06:58:35;;;;;;;15.00;7.53;;;16.60;61.50;;;;;;5025944;28;20798;-55
2023/06/03 07:01:00;;;;;;;20.80;8.03;;;16.70;61.40;;;;;;5024516;28;20453;-57
2023/06/03 07:03:26;;;;;;;18.13;7.90;;;16.70;61.30;;;;;;5025250;28;20418;-57
2023/06/03 07:05:53;;;;;;;15.40;7.23;;;16.80;61.10;;;;;;5026307;28;20180;-56
2023/06/03 07:08:21;;;;;;;13.67;7.97;;;16.80;61.30;;;;;;5020718;28;20172;-57
2023/06/03 07:10:47;;;;;;;10.43;7.50;;;16.90;61.30;;;;;;5020133;28;20545;-57
2023/06/03 07:13:15;;;;;;;10.27;7.20;;;17.00;61.50;;;;;;5024440;28;21144;-57
2023/06/03 07:15:41;;;;;;;13.40;7.23;;;17.00;60.90;;;;;;5024432;28;20594;-57
2023/06/03 07:18:09;;;;;;;15.43;7.93;;;17.10;60.90;;;;;;5022307;28;20457;-56
2023/06/03 07:20:38;;;;;;;10.97;7.53;;;17.20;60.70;;;;;;5019473;28;20266;-56
2023/06/03 07:23:10;;;;;;;19.70;8.00;;;17.30;60.30;;;;;;5021658;28;20522;-56
2023/06/03 07:25:35;;;;;;;13.73;8.30;;;17.40;60.00;;;;;;5019181;28;20452;-56
2023/06/03 07:28:07;;;;;;;15.57;7.90;;;17.50;60.10;;;;;;5020391;28;20930;-56
2023/06/03 07:30:37;;;;;;;19.60;7.93;;;17.60;59.80;;;;;;5024931;28;20195;-55
2023/06/03 07:33:05;;;;;;;13.47;7.80;;;17.70;59.80;;;;;;5028162;28;20457;-57
2023/06/03 07:35:32;;;;;;;12.83;7.80;;;17.80;59.50;;;;;;5025367;28;20433;-57
2023/06/03 07:37:57;;;;;;;13.50;8.27;;;17.90;59.10;;;;;;5026214;28;20498;-57
2023/06/03 07:40:39;;;;;;;16.23;8.13;;;17.90;58.80;;;;;;5026828;28;20543;-56
2023/06/03 07:43:06;;;;;;;10.23;7.43;;;18.00;59.30;;;;;;5028559;28;20171;-57
2023/06/03 07:45:33;;;;;;;17.90;8.00;;;18.00;59.30;;;;;;5030583;28;20423;-56
2023/06/03 07:48:01;;;;;;;15.27;8.40;;;18.10;59.30;;;;;;5015817;28;20449;-56
2023/06/03 07:50:27;;;;;;;15.50;7.80;;;18.20;58.90;;;;;;5025787;28;20449;-57
2023/06/03 07:53:02;;;;;;;10.60;8.10;;;18.30;59.10;;;;;;5028533;28;20422;-57
2023/06/03 07:55:39;;;;;;;14.77;7.67;;;18.50;59.30;;;;;;5030409;28;20183;-57
2023/06/03 07:58:04;;;;;;;16.90;10.03;;;18.50;58.70;;;;;;5025228;28;20454;-58
2023/06/03 08:00:30;;;;;;;16.60;8.27;;;18.60;58.00;;;;;;5022121;28;21132;-56
2023/06/03 08:02:56;;;;;;;9.67;6.63;;;18.70;58.10;;;;;;5028866;28;20299;-56
2023/06/03 08:05:33;;;;;;;12.77;7.00;;;18.80;57.50;;;;;;5024482;28;20183;-57
2023/06/03 08:07:59;;;;;;;13.57;7.87;;;18.80;57.50;;;;;;5023968;28;20179;-57
2023/06/03 08:10:25;;;;;;;14.50;6.80;;;18.80;57.20;;;;;;5026121;28;20446;-57
2023/06/03 08:12:51;;;;;;;12.73;6.93;;;19.00;57.60;;;;;;5027575;28;20430;-56
2023/06/03 08:15:28;;;;;;;15.83;7.67;;;19.00;57.40;;;;;;5023248;28;20264;-55
2023/06/03 08:17:55;;;;;;;15.90;7.13;;;19.10;56.80;;;;;;5029917;28;20271;-56
2023/06/03 08:20:27;;;;;;;12.73;7.40;;;19.20;56.90;;;;;;5021203;28;20470;-57
2023/06/03 08:22:54;;;;;;;13.37;7.17;;;19.30;57.30;;;;;;5021322;28;20422;-56
2023/06/03 08:25:20;;;;;;;14.70;7.47;;;19.30;56.70;;;;;;5028762;28;20411;-57
2023/06/03 08:27:46;;;;;;;12.30;7.83;;;19.40;56.60;;;;;;5024609;28;20426;-55
2023/06/03 08:30:12;;;;;;;12.70;6.30;;;19.50;55.90;;;;;;5023580;28;20982;-56
2023/06/03 08:32:39;;;;;;;13.10;6.33;;;19.60;55.70;;;;;;5020844;28;20564;-57
2023/06/03 08:35:07;;;;;;;10.60;6.80;;;19.70;55.50;;;;;;5024883;28;20517;-56
2023/06/03 08:37:33;;;;;;;12.80;7.50;;;19.80;55.20;;;;;;5021631;28;20447;-58
2023/06/03 08:40:05;;;;;;;11.70;6.80;;;19.90;54.80;;;;;;5024738;28;20458;-57
2023/06/03 08:42:41;;;;;;;10.17;7.10;;;20.00;55.40;;;;;;5024536;28;20430;-56
2023/06/03 08:45:08;;;;;;;12.90;6.77;;;20.10;54.30;;;;;;5021790;28;20509;-58
2023/06/03 08:47:52;;;;;;;12.70;7.37;;;20.20;54.30;;;;;;5025442;28;20430;-57
2023/06/03 08:50:21;;;;;;;11.17;6.73;;;20.30;54.30;;;;;;5027034;28;20815;-58
2023/06/03 08:52:48;;;;;;;11.40;6.83;;;20.40;54.50;;;;;;5026661;28;20423;-56
2023/06/03 08:55:17;;;;;;;15.80;7.80;;;20.50;54.40;;;;;;5026335;28;20458;-57
2023/06/03 08:58:03;;;;;;;12.50;7.63;;;20.60;54.30;;;;;;5023648;28;20431;-58
2023/06/03 09:00:30;;;;;;;12.10;6.47;;;20.70;53.40;;;;;;5027915;28;20766;-57
2023/06/03 09:02:56;;;;;;;11.57;6.20;;;20.80;53.60;;;;;;5028365;28;20418;-58
2023/06/03 09:05:22;;;;;;;16.87;7.53;;;20.80;53.50;;;;;;5026388;28;20777;-58
2023/06/03 09:07:49;;;;;;;9.53;6.30;;;20.90;53.20;;;;;;5022383;28;20188;-58
2023/06/03 09:10:17;;;;;;;14.87;7.90;;;21.00;53.20;;;;;;5026999;28;21085;-57
2023/06/03 09:12:46;;;;;;;10.73;7.37;;;21.10;52.50;;;;;;5027785;28;21078;-57
2023/06/03 09:15:14;;;;;;;12.87;7.60;;;21.20;53.00;;;;;;5023156;28;20431;-56
2023/06/03 09:17:43;;;;;;;15.87;7.20;;;21.20;53.20;;;;;;5019717;28;20438;-57
2023/06/03 09:20:11;;;;;;;11.23;7.07;;;21.40;52.80;;;;;;5022517;28;20466;-58
2023/06/03 09:22:38;;;;;;;13.43;6.63;;;21.50;52.40;;;;;;5021119;28;20461;-58
2023/06/03 09:25:04;;;;;;;12.83;6.73;;;21.60;52.40;;;;;;5025685;28;20418;-57
2023/06/03 09:27:31;;;;;;;16.10;7.33;;;21.70;53.00;;;;;;5026968;28;20422;-57
2023/06/03 09:29:56;;;;;;;12.20;6.60;;;21.80;52.70;;;;;;5023743;28;20461;-57
2023/06/03 09:32:22;;;;;;;16.03;7.03;;;21.90;52.80;;;;;;5023464;28;20935;-57
2023/06/03 09:34:49;;;;;;;15.93;6.87;;;22.00;52.90;;;;;;5024530;28;20200;-56
2023/06/03 09:37:15;;;;;;;8.20;6.97;;;22.10;53.40;;;;;;5026487;28;22192;-56
2023/06/03 09:39:41;;;;;;;12.97;7.03;;;22.30;53.80;;;;;;5026142;28;20470;-57
2023/06/03 09:42:07;;;;;;;10.17;7.13;;;22.40;53.20;;;;;;5021248;28;20450;-57
2023/06/03 09:44:43;;;;;;;10.80;7.40;;;22.50;53.70;;;;;;5025355;28;20415;-58
2023/06/03 09:47:11;;;;;;;10.83;6.57;;;22.60;52.80;;;;;;5024571;28;20199;-57
2023/06/03 09:49:37;;;;;;;13.33;6.53;;;22.70;53.10;;;;;;5022052;28;20427;-57
2023/06/03 09:52:07;;;;;;;14.73;7.10;;;22.80;53.00;;;;;;5023961;28;20478;-56
2023/06/03 09:54:34;;;;;;;8.63;6.23;;;22.90;52.60;;;;;;5020146;28;20433;-61
2023/06/03 09:57:11;;;;;;;8.63;6.53;;;23.00;51.60;;;;;;5025349;28;20484;-56
2023/06/03 09:59:36;;;;;;;9.20;6.47;;;23.10;50.20;;;;;;5023169;28;20469;-57
2023/06/03 10:02:10;;;;;;;12.83;7.47;;;23.20;49.40;;;;;;5027179;28;20438;-56
2023/06/03 10:04:46;;;;;;;12.27;6.67;;;23.30;49.20;;;;;;5023884;28;20195;-56
2023/06/03 10:07:13;;;;;;;10.30;6.77;;;23.40;49.80;;;;;;5024004;28;20450;-57
2023/06/03 10:09:44;;;;;;;10.10;6.47;;;23.60;50.80;;;;;;5019802;28;20452;-57
2023/06/03 10:12:14;;;;;;;10.27;6.70;;;23.70;50.70;;;;;;5025997;28;20434;-56
2023/06/03 10:14:46;;;;;;;13.93;6.53;;;23.80;50.80;;;;;;5028025;28;20423;-55
2023/06/03 10:17:14;;;;;;;11.97;6.77;;;23.90;50.70;;;;;;5025914;28;20450;-57
2023/06/03 10:19:41;;;;;;;13.43;7.57;;;24.00;49.50;;;;;;5025885;28;21128;-57
2023/06/03 10:22:09;;;;;;;10.97;6.33;;;24.10;49.40;;;;;;5022806;28;20438;-55
2023/06/03 10:24:39;;;;;;;10.10;6.10;;;24.20;49.70;;;;;;5022573;28;20438;-57
2023/06/03 10:27:06;;;;;;;7.73;5.97;;;24.30;48.90;;;;;;5022674;28;20565;-56
2023/06/03 10:29:33;;;;;;;9.37;5.80;;;24.40;47.70;;;;;;5017792;28;20446;-56
2023/06/03 10:32:04;;;;;;;11.20;7.50;;;24.50;46.10;;;;;;5022413;28;20457;-55
2023/06/03 10:34:31;;;;;;;10.00;6.33;;;24.60;45.40;;;;;;5022719;28;20426;-57
2023/06/03 10:36:57;;;;;;;9.07;6.33;;;24.70;45.30;;;;;;5022313;28;20450;-58
2023/06/03 10:39:27;;;;;;;9.07;5.97;;;24.80;46.00;;;;;;5025473;28;20501;-56
2023/06/03 10:42:01;;;;;;;11.30;6.50;;;25.00;47.30;;;;;;5019931;28;20494;-57
2023/06/03 10:44:28;;;;;;;9.87;6.40;;;25.10;45.80;;;;;;5026776;28;20418;-57
2023/06/03 10:47:16;;;;;;;9.50;6.33;;;25.20;45.10;;;;;;5026478;28;20491;-57
2023/06/03 10:49:52;;;;;;;8.33;6.10;;;25.30;43.60;;;;;;5018871;28;20430;-56
2023/06/03 10:52:43;;;;;;;11.33;5.90;;;25.40;43.00;;;;;;5025022;28;20468;-57
2023/06/03 10:55:27;;;;;;;10.63;7.03;;;25.60;42.00;;;;;;5019142;28;20495;-57
2023/06/03 10:58:02;;;;;;;8.90;6.07;;;25.60;40.70;;;;;;5024309;28;20465;-57
2023/06/03 11:00:59;;;;;;;9.77;5.40;;;25.40;40.50;;;;;;5026402;28;20482;-58
2023/06/03 11:03:31;;;;;;;9.37;6.40;;;25.30;41.60;;;;;;5024110;28;20430;-57
2023/06/03 11:06:32;;;;;;;7.43;6.23;;;25.40;42.50;;;;;;5024324;28;20430;-57
2023/06/03 11:09:16;;;;;;;8.63;5.70;;;25.60;41.50;;;;;;5022358;28;20948;-56
2023/06/03 11:11:41;;;;;;;10.57;6.50;;;25.70;41.80;;;;;;5021440;28;20972;-56
2023/06/03 11:14:07;;;;;;;13.63;6.50;;;25.90;43.40;;;;;;5027441;28;20422;-56
2023/06/03 11:16:59;;;;;;;10.53;6.40;;;26.10;43.10;;;;;;5026081;28;20175;-57
2023/06/03 11:19:45;;;;;;;10.10;5.63;;;26.30;42.30;;;;;;5023646;28;20549;-56
2023/06/03 11:22:31;;;;;;;11.10;7.80;;;26.40;41.20;;;;;;5019523;28;20444;-57
2023/06/03 11:25:01;;;;;;;11.20;6.60;;;26.50;40.80;;;;;;5023494;28;20955;-57
2023/06/03 11:27:27;;;;;;;8.13;6.50;;;26.60;39.60;;;;;;5022339;28;20791;-57
2023/06/03 11:29:59;;;;;;;10.30;5.90;;;26.70;40.90;;;;;;5023939;28;20438;-57
2023/06/03 11:32:33;;;;;;;12.00;5.80;;;26.70;40.40;;;;;;5019467;28;20568;-57
2023/06/03 11:35:04;;;;;;;12.43;6.20;;;26.80;41.50;;;;;;5022734;28;20259;-57
2023/06/03 11:37:52;;;;;;;8.67;6.03;;;27.00;41.20;;;;;;5017105;28;20656;-57
2023/06/03 11:40:20;;;;;;;7.90;5.53;;;27.10;41.10;;;;;;5019851;28;20204;-55
2023/06/03 11:42:51;;;;;;;7.97;5.63;;;27.00;39.40;;;;;;5017810;28;20180;-57
2023/06/03 11:45:20;;;;;;;7.77;5.13;;;27.00;38.90;;;;;;5025299;28;20222;-57
2023/06/03 11:48:01;;;;;;;6.73;5.10;;;27.00;39.50;;;;;;5020786;28;20199;-57
2023/06/03 11:50:53;;;;;;;19.33;6.60;;;26.70;40.10;;;;;;5025249;28;20712;-57
2023/06/03 11:53:29;;;;;;;9.10;5.43;;;26.30;40.50;;;;;;5017121;28;20181;-57
2023/06/03 11:56:06;;;;;;;7.67;6.10;;;26.00;40.80;;;;;;5018970;28;20430;-57
2023/06/03 11:58:33;;;;;;;8.33;6.00;;;25.60;40.70;;;;;;5023481;28;20587;-56
2023/06/03 12:01:06;;;;;;;8.70;6.30;;;25.20;40.40;;;;;;5022269;28;20551;-57
2023/06/03 12:03:32;;;;;;;8.60;6.10;;;24.80;42.40;;;;;;5021717;28;20429;-56
2023/06/03 12:06:01;;;;;;;7.93;5.87;;;24.70;43.30;;;;;;5027004;28;20504;-57
2023/06/03 12:08:42;;;;;;;7.43;6.07;;;24.50;43.10;;;;;;5029217;28;20250;-56
2023/06/03 12:11:07;;;;;;;8.73;5.60;;;24.30;43.20;;;;;;5027766;28;20473;-57
2023/06/03 12:13:42;;;;;;;12.27;7.17;;;24.10;43.30;;;;;;5028171;28;20461;-57
2023/06/03 12:16:07;;;;;;;13.73;6.40;;;23.90;43.10;;;;;;5027302;28;20199;-58
2023/06/03 12:18:33;;;;;;;11.10;6.40;;;23.80;43.70;;;;;;5025614;28;20476;-58
2023/06/03 12:21:22;;;;;;;9.10;6.30;;;23.70;44.40;;;;;;5028417;28;20691;-56
2023/06/03 12:23:47;;;;;;;8.03;6.23;;;24.10;45.40;;;;;;5025876;28;20693;-56
2023/06/03 12:26:13;;;;;;;7.53;6.23;;;24.80;45.30;;;;;;5025248;28;20423;-56
2023/06/03 12:28:39;;;;;;;10.17;6.07;;;25.40;44.70;;;;;;5020024;28;20179;-57
2023/06/03 12:31:15;;;;;;;11.00;5.77;;;26.10;43.30;;;;;;5023343;28;20203;-57
2023/06/03 12:33:43;;;;;;;8.80;5.53;;;26.80;43.70;;;;;;5025500;28;20192;-56
2023/06/03 12:36:09;;;;;;;7.90;5.90;;;27.20;42.00;;;;;;5028274;28;20908;-56
2023/06/03 12:38:53;;;;;;;7.00;5.90;;;27.20;40.60;;;;;;5027978;28;20958;-56
2023/06/03 12:41:18;;;;;;;9.30;6.20;;;26.80;39.20;;;;;;5025165;28;20458;-56
2023/06/03 12:43:45;;;;;;;9.93;5.63;;;26.30;39.00;;;;;;5024945;28;20434;-57
2023/06/03 12:46:17;;;;;;;6.57;5.77;;;26.00;40.50;;;;;;5029066;28;20685;-57
2023/06/03 12:48:46;;;;;;;11.30;6.57;;;25.70;40.60;;;;;;5024206;28;20436;-56